Time;durP1;ratioP1;P1;durP2;ratioP2;P2;SDS_P1;SDS_P2;PMS_P1;PMS_P2;Temp;Humidity;BMP_temperature;BMP_pressure;BME280_temperature;BME280_humidity;BME280_pressure;Samples;Min_cycle;Max_cycle;Signal;HPM_P1;HPM_P2
2022/03/09 00:02:28;;;;;;;3.22;2.15;;;2.70;72.70;;;;;;2146922;66;20419;-67
2022/03/09 00:05:10;;;;;;;3.88;2.63;;;2.70;73.00;;;;;;2140753;66;20224;-66
2022/03/09 00:07:53;;;;;;;2.88;2.22;;;2.60;73.60;;;;;;2140552;66;20590;-67
2022/03/09 00:10:38;;;;;;;2.83;2.30;;;2.60;74.00;;;;;;2132021;67;20543;-67
2022/03/09 00:13:21;;;;;;;3.95;2.53;;;2.60;74.50;;;;;;2140205;66;20185;-68
2022/03/09 00:16:06;;;;;;;3.42;2.45;;;2.50;74.70;;;;;;2144007;66;20217;-67
2022/03/09 00:18:48;;;;;;;3.53;2.63;;;2.50;75.40;;;;;;2146602;66;20174;-69
2022/03/09 00:21:30;;;;;;;3.00;2.20;;;2.40;75.40;;;;;;2144358;66;20225;-67
2022/03/09 00:24:14;;;;;;;4.20;2.17;;;2.40;75.60;;;;;;2146746;66;20242;-67
2022/03/09 00:26:56;;;;;;;4.30;2.22;;;2.40;75.90;;;;;;2147392;66;20380;-68
2022/03/09 00:29:38;;;;;;;5.50;2.97;;;2.40;76.20;;;;;;2140578;66;20379;-68
2022/03/09 00:32:20;;;;;;;3.78;2.25;;;2.30;76.60;;;;;;2140545;66;20218;-68
2022/03/09 00:35:02;;;;;;;4.38;2.88;;;2.20;77.80;;;;;;2128474;67;20263;-68
2022/03/09 00:37:47;;;;;;;3.33;2.10;;;2.20;77.90;;;;;;2133094;67;20286;-68
2022/03/09 00:40:30;;;;;;;3.25;2.33;;;2.20;78.70;;;;;;2140101;66;20297;-67
2022/03/09 00:43:15;;;;;;;;;;;2.20;79.30;;;;;;2141515;66;20201;-67
2022/03/09 00:45:57;;;;;;;3.28;2.35;;;2.10;80.00;;;;;;2145065;66;20195;-67
2022/03/09 00:48:39;;;;;;;5.82;2.55;;;2.10;79.30;;;;;;2152957;66;20169;-68
2022/03/09 00:51:21;;;;;;;3.90;2.50;;;2.00;79.40;;;;;;2146556;66;20299;-68
2022/03/09 00:54:03;;;;;;;3.83;2.65;;;2.00;80.10;;;;;;2138573;66;20788;-68
2022/03/09 00:56:45;;;;;;;3.75;2.75;;;2.00;81.00;;;;;;2153200;66;20205;-67
2022/03/09 00:59:29;;;;;;;4.03;2.55;;;2.00;81.20;;;;;;2149293;66;20255;-68
2022/03/09 01:02:13;;;;;;;4.22;2.67;;;2.00;81.50;;;;;;2160589;66;20188;-67
2022/03/09 01:04:57;;;;;;;4.53;2.70;;;2.00;82.40;;;;;;2144889;66;20354;-67
2022/03/09 01:07:41;;;;;;;5.00;3.50;;;1.90;82.10;;;;;;2161768;66;20302;-68
2022/03/09 01:10:24;;;;;;;5.32;3.40;;;1.90;82.70;;;;;;2161113;66;20241;-66
2022/03/09 01:13:06;;;;;;;5.13;2.80;;;1.90;84.00;;;;;;2157460;66;20356;-65
2022/03/09 01:15:48;;;;;;;6.00;3.00;;;1.90;83.90;;;;;;2156938;66;20300;-68
2022/03/09 01:18:31;;;;;;;4.03;2.78;;;1.90;84.50;;;;;;2156561;66;20311;-67
2022/03/09 01:21:34;;;;;;;6.70;3.10;;;1.80;84.90;;;;;;2301713;53;21751;-67
2022/03/09 01:24:16;;;;;;;3.72;3.05;;;1.80;85.00;;;;;;2202100;64;20333;-66
2022/03/09 01:26:57;;;;;;;4.93;2.90;;;1.80;86.00;;;;;;2208287;64;20235;-67
2022/03/09 01:29:39;;;;;;;5.68;3.75;;;1.70;86.70;;;;;;2207206;65;20304;-68
2022/03/09 01:32:22;;;;;;;6.68;2.85;;;1.80;87.10;;;;;;2199681;65;20568;-67
2022/03/09 01:35:08;;;;;;;3.75;2.72;;;1.70;87.40;;;;;;2199344;65;20326;-66
2022/03/09 01:37:51;;;;;;;5.80;3.15;;;1.70;88.00;;;;;;2184330;65;20338;-67
2022/03/09 01:40:35;;;;;;;5.70;3.25;;;1.70;88.00;;;;;;2184458;65;20178;-68
2022/03/09 01:43:18;;;;;;;4.20;2.78;;;1.70;88.70;;;;;;2184235;65;20251;-67
2022/03/09 01:45:59;;;;;;;4.43;2.78;;;1.70;88.80;;;;;;2184280;65;20352;-67
2022/03/09 01:48:41;;;;;;;3.95;2.63;;;1.70;89.60;;;;;;2177617;65;20355;-66
2022/03/09 01:51:24;;;;;;;5.57;3.58;;;1.60;89.40;;;;;;2171128;65;20358;-68
2022/03/09 01:54:06;;;;;;;4.80;3.22;;;1.60;90.00;;;;;;2176726;65;20192;-67
2022/03/09 01:56:48;;;;;;;6.63;3.85;;;1.60;90.50;;;;;;2162042;66;20347;-68
2022/03/09 01:59:31;;;;;;;6.13;4.75;;;1.50;90.40;;;;;;2169625;66;20188;-68
2022/03/09 02:02:16;;;;;;;7.90;5.60;;;1.50;90.70;;;;;;2164026;66;20349;-70
2022/03/09 02:04:58;;;;;;;6.35;4.43;;;1.50;91.30;;;;;;2169135;66;20172;-67
2022/03/09 02:10:40;;;;;;;9.77;4.82;;;1.50;91.30;;;;;;2173198;65;20291;-67
2022/03/09 02:13:22;;;;;;;7.80;3.90;;;1.40;91.90;;;;;;2168404;66;20184;-68
2022/03/09 02:16:06;;;;;;;10.25;3.72;;;1.50;91.90;;;;;;2154314;66;20630;-68
2022/03/09 02:18:48;;;;;;;6.68;3.55;;;1.40;92.20;;;;;;2167539;66;20391;-68
2022/03/09 02:21:32;;;;;;;6.47;4.05;;;1.40;92.40;;;;;;2154561;66;20272;-66
2022/03/09 02:24:14;;;;;;;8.07;3.13;;;1.40;93.10;;;;;;2148239;66;20745;-67
2022/03/09 02:26:58;;;;;;;5.28;3.88;;;1.40;93.30;;;;;;2161786;66;20289;-67
2022/03/09 02:29:43;;;;;;;5.30;3.30;;;1.40;93.20;;;;;;2141944;66;20366;-68
2022/03/09 02:32:24;;;;;;;6.45;3.88;;;1.40;93.70;;;;;;2145057;66;20949;-67
2022/03/09 02:35:10;;;;;;;7.28;4.28;;;1.40;94.10;;;;;;2132565;67;20272;-68
2022/03/09 02:37:54;;;;;;;5.50;3.33;;;1.30;94.30;;;;;;2112207;67;20233;-67
2022/03/09 02:40:37;;;;;;;6.57;3.72;;;1.30;94.40;;;;;;2117955;67;20702;-67
2022/03/09 02:43:23;;;;;;;6.05;3.92;;;1.30;94.40;;;;;;2125747;67;20321;-67
2022/03/09 02:46:06;;;;;;;8.40;3.72;;;1.30;94.50;;;;;;2125494;67;20325;-67
2022/03/09 02:48:52;;;;;;;4.40;3.42;;;1.20;95.10;;;;;;2117869;67;20391;-67
2022/03/09 02:51:38;;;;;;;5.38;3.90;;;1.20;96.10;;;;;;2111353;67;20189;-67
2022/03/09 02:54:21;;;;;;;6.75;3.85;;;1.20;95.70;;;;;;2112580;67;20219;-68
2022/03/09 02:57:04;;;;;;;8.73;4.43;;;1.20;95.90;;;;;;2133733;67;20291;-67
2022/03/09 02:59:49;;;;;;;6.13;3.70;;;1.20;96.00;;;;;;2148901;66;20631;-68
2022/03/09 03:02:31;;;;;;;6.23;4.30;;;1.30;96.40;;;;;;2140999;66;20902;-68
2022/03/09 03:05:12;;;;;;;6.75;3.55;;;1.10;97.10;;;;;;2140343;66;20332;-68
2022/03/09 03:07:57;;;;;;;5.18;3.70;;;1.10;97.00;;;;;;2131964;67;20227;-67
2022/03/09 03:10:39;;;;;;;6.30;3.95;;;1.00;97.30;;;;;;2139355;67;20335;-67
2022/03/09 03:13:21;;;;;;;7.88;4.22;;;1.00;97.50;;;;;;2144897;66;20323;-67
2022/03/09 03:16:02;;;;;;;6.72;3.75;;;1.00;97.60;;;;;;2136262;67;20267;-67
2022/03/09 03:18:47;;;;;;;7.43;3.95;;;1.00;97.90;;;;;;2146927;66;20661;-68
2022/03/09 03:21:29;;;;;;;5.70;3.90;;;1.00;98.10;;;;;;2154754;66;20220;-67
2022/03/09 03:24:14;;;;;;;8.25;4.30;;;0.90;98.30;;;;;;2139837;66;20226;-68
2022/03/09 03:26:56;;;;;;;6.40;3.90;;;0.90;98.70;;;;;;2147937;66;20224;-67
2022/03/09 03:29:38;;;;;;;6.47;3.83;;;0.90;98.90;;;;;;2150203;66;20193;-66
2022/03/09 03:32:19;;;;;;;7.07;4.50;;;0.90;99.20;;;;;;2161973;66;20847;-68
2022/03/09 03:35:03;;;;;;;6.88;4.07;;;0.90;99.60;;;;;;2147643;66;20269;-66
2022/03/09 03:37:48;;;;;;;;;;;0.80;99.90;;;;;;2115732;67;20479;-67
2022/03/09 03:40:32;;;;;;;6.35;4.07;;;0.80;99.90;;;;;;2136649;67;20308;-67
2022/03/09 03:43:15;;;;;;;6.05;3.80;;;0.80;99.90;;;;;;2132493;67;20231;-68
2022/03/09 03:45:59;;;;;;;5.95;3.75;;;0.80;99.90;;;;;;2132582;67;20405;-67
2022/03/09 03:48:44;;;;;;;7.00;4.35;;;0.80;99.90;;;;;;2125120;67;20176;-67
2022/03/09 03:51:26;;;;;;;5.53;4.28;;;0.80;99.90;;;;;;2131776;67;20267;-68
2022/03/09 03:54:11;;;;;;;6.20;4.20;;;0.80;99.90;;;;;;2126972;67;20359;-69
2022/03/09 03:56:54;;;;;;;6.93;4.90;;;0.70;99.90;;;;;;2118224;67;20427;-68
2022/03/09 03:59:40;;;;;;;7.13;4.38;;;0.70;99.90;;;;;;2117631;67;20253;-69
2022/03/09 04:02:25;;;;;;;6.40;3.80;;;0.70;99.90;;;;;;2118850;67;20321;-69
2022/03/09 04:05:07;;;;;;;8.95;4.53;;;0.70;99.90;;;;;;2125857;67;20425;-68
2022/03/09 04:07:52;;;;;;;6.95;4.75;;;0.70;99.90;;;;;;2130595;67;20219;-67
2022/03/09 04:10:38;;;;;;;7.00;4.72;;;0.60;99.90;;;;;;2124999;67;20643;-67
2022/03/09 04:13:23;;;;;;;8.40;4.47;;;0.70;99.90;;;;;;2123623;67;20270;-68
2022/03/09 04:16:04;;;;;;;8.48;5.15;;;0.60;99.90;;;;;;2119108;67;20706;-68
2022/03/09 04:18:46;;;;;;;7.53;5.28;;;0.70;99.90;;;;;;2124532;67;20815;-68
2022/03/09 04:21:28;;;;;;;6.55;4.43;;;0.70;99.90;;;;;;2132029;67;20260;-68
2022/03/09 04:24:09;;;;;;;7.10;4.72;;;0.90;99.90;;;;;;2124963;67;20271;-68
2022/03/09 04:26:51;;;;;;;8.02;4.55;;;0.70;99.90;;;;;;2138582;67;20261;-68
2022/03/09 04:29:33;;;;;;;7.82;4.95;;;0.70;99.90;;;;;;2132003;67;20195;-68
2022/03/09 04:32:20;;;;;;;8.80;4.60;;;0.60;99.90;;;;;;2124959;67;20236;-68
2022/03/09 04:35:05;;;;;;;7.28;4.60;;;0.60;99.90;;;;;;2125105;67;20535;-68
2022/03/09 04:37:48;;;;;;;6.82;4.75;;;0.60;99.90;;;;;;2131715;67;20334;-68
2022/03/09 04:40:32;;;;;;;8.30;5.03;;;0.60;99.90;;;;;;2142634;66;20229;-69
2022/03/09 04:43:15;;;;;;;8.07;5.25;;;0.60;99.90;;;;;;2139170;67;20223;-67
2022/03/09 04:46:00;;;;;;;10.55;4.78;;;0.50;99.90;;;;;;2132031;67;20915;-68
2022/03/09 04:48:42;;;;;;;6.72;5.18;;;0.50;99.90;;;;;;2131506;67;20254;-67
2022/03/09 04:51:23;;;;;;;6.93;4.82;;;0.50;99.90;;;;;;2132134;67;20315;-68
2022/03/09 04:54:08;;;;;;;11.27;5.30;;;0.50;99.90;;;;;;2118158;67;20210;-67
2022/03/09 04:56:50;;;;;;;8.55;5.18;;;0.40;99.90;;;;;;2123942;67;20206;-67
2022/03/09 04:59:35;;;;;;;8.55;5.45;;;0.40;99.90;;;;;;2121864;67;20242;-67
2022/03/09 05:02:19;;;;;;;9.15;4.90;;;0.30;99.90;;;;;;2131825;67;20215;-68
2022/03/09 05:05:05;;;;;;;8.35;4.85;;;0.30;99.90;;;;;;2139015;67;20336;-68
2022/03/09 05:07:48;;;;;;;9.90;5.35;;;0.30;99.90;;;;;;2138548;67;20186;-67
2022/03/09 05:10:29;;;;;;;7.25;4.93;;;0.20;99.90;;;;;;2133514;67;20359;-67
2022/03/09 05:13:14;;;;;;;7.50;5.05;;;0.20;99.90;;;;;;2150687;66;20302;-68
2022/03/09 05:15:59;;;;;;;7.03;4.85;;;0.20;99.90;;;;;;2140277;67;20408;-67
2022/03/09 05:18:44;;;;;;;8.13;5.13;;;0.20;99.90;;;;;;2139984;67;20416;-67
2022/03/09 05:21:30;;;;;;;7.20;5.28;;;0.20;99.90;;;;;;2145535;66;20616;-68
2022/03/09 05:24:13;;;;;;;7.60;4.53;;;0.20;99.90;;;;;;2146642;66;20433;-68
2022/03/09 05:26:55;;;;;;;9.68;5.22;;;0.20;99.90;;;;;;2147543;66;20354;-68
2022/03/09 05:29:37;;;;;;;7.53;5.32;;;0.10;99.90;;;;;;2169889;65;20259;-67
2022/03/09 05:32:19;;;;;;;12.80;4.90;;;0.10;99.90;;;;;;2168444;66;20354;-67
2022/03/09 05:35:00;;;;;;;11.93;5.40;;;0.00;99.90;;;;;;2154462;66;20554;-67
2022/03/09 05:37:45;;;;;;;9.65;5.35;;;0.10;99.90;;;;;;2154587;66;20249;-67
2022/03/09 05:40:29;;;;;;;7.30;4.78;;;0.10;99.90;;;;;;2147093;66;20770;-68
2022/03/09 05:43:13;;;;;;;8.43;5.20;;;0.00;99.90;;;;;;2147604;66;20824;-67
2022/03/09 05:45:57;;;;;;;10.48;5.32;;;0.10;99.90;;;;;;2156737;66;20318;-67
2022/03/09 05:48:43;;;;;;;7.78;5.60;;;0.00;99.90;;;;;;2161821;66;20538;-68
2022/03/09 05:51:47;;;;;;;12.13;5.50;;;0.00;99.90;;;;;;2161865;66;20213;-69
2022/03/09 05:54:29;;;;;;;10.52;5.80;;;0.00;99.90;;;;;;2153325;66;20271;-68
2022/03/09 05:57:11;;;;;;;9.40;5.78;;;0.00;99.90;;;;;;2148450;66;20250;-69
2022/03/09 05:59:53;;;;;;;11.63;5.72;;;0.10;99.90;;;;;;2154461;66;20367;-67
2022/03/09 06:02:36;;;;;;;10.40;5.15;;;0.10;99.90;;;;;;2148355;66;20215;-67
2022/03/09 06:05:22;;;;;;;11.38;5.05;;;0.10;99.90;;;;;;2147164;66;20240;-68
2022/03/09 06:08:07;;;;;;;7.78;5.45;;;0.10;99.90;;;;;;2141956;66;20255;-67
2022/03/09 06:10:49;;;;;;;9.05;4.93;;;0.20;99.90;;;;;;2146683;66;20178;-68
2022/03/09 06:13:35;;;;;;;10.70;5.03;;;0.20;99.90;;;;;;2147176;66;20895;-69
2022/03/09 06:16:20;;;;;;;7.38;4.85;;;0.20;99.90;;;;;;2144084;66;20268;-67
2022/03/09 06:19:05;;;;;;;9.32;4.35;;;0.20;99.90;;;;;;2131586;67;20318;-68
2022/03/09 06:21:47;;;;;;;7.85;5.45;;;0.60;99.90;;;;;;2139899;67;20358;-67
2022/03/09 06:24:41;;;;;;;7.95;5.10;;;0.20;99.90;;;;;;2143391;66;20316;-68
2022/03/09 06:27:24;;;;;;;11.95;5.30;;;0.30;99.90;;;;;;2119406;67;20228;-68
2022/03/09 06:30:08;;;;;;;7.43;5.20;;;0.40;99.90;;;;;;2111520;67;20894;-66
2022/03/09 06:32:52;;;;;;;7.88;4.95;;;0.40;99.90;;;;;;2105544;67;20194;-69
2022/03/09 06:35:36;;;;;;;;;;;0.40;99.90;;;;;;2117731;67;20793;-68
2022/03/09 06:38:23;;;;;;;10.00;5.70;;;0.40;99.90;;;;;;2109443;67;20094;-68
2022/03/09 06:41:06;;;;;;;7.88;5.13;;;0.50;99.90;;;;;;2121024;67;20240;-67
2022/03/09 06:43:52;;;;;;;10.18;5.28;;;0.50;99.90;;;;;;2124333;67;20459;-68
2022/03/09 06:46:37;;;;;;;9.90;6.18;;;0.60;99.90;;;;;;2118485;67;20643;-67
2022/03/09 06:49:19;;;;;;;8.48;5.55;;;0.70;99.90;;;;;;2119851;67;20185;-68
2022/03/09 06:52:02;;;;;;;11.80;5.40;;;0.80;99.90;;;;;;2125353;67;20298;-67
2022/03/09 06:54:46;;;;;;;11.05;5.90;;;0.80;99.90;;;;;;2126851;67;20670;-68
2022/03/09 06:57:29;;;;;;;8.82;5.65;;;0.90;99.90;;;;;;2131853;67;20201;-66
2022/03/09 07:00:16;;;;;;;11.02;5.70;;;1.00;99.90;;;;;;2145356;66;20259;-68
2022/03/09 07:03:02;;;;;;;10.57;5.65;;;1.00;99.90;;;;;;2140061;66;20293;-68
2022/03/09 07:05:43;;;;;;;10.13;5.95;;;1.30;99.90;;;;;;2140897;66;20897;-67
2022/03/09 07:08:26;;;;;;;11.82;5.55;;;1.10;99.90;;;;;;2157407;66;20305;-67
2022/03/09 07:11:10;;;;;;;10.77;5.65;;;1.10;99.90;;;;;;2167473;66;20395;-68
2022/03/09 07:13:54;;;;;;;11.88;6.55;;;1.10;99.90;;;;;;2174732;65;20349;-66
2022/03/09 07:16:42;;;;;;;10.35;6.18;;;1.10;99.90;;;;;;2170148;65;20580;-68
2022/03/09 07:19:23;;;;;;;7.47;5.55;;;1.10;99.90;;;;;;2161547;66;20314;-67
2022/03/09 07:22:06;;;;;;;9.68;6.15;;;1.20;99.90;;;;;;2156050;66;20236;-68
2022/03/09 07:24:50;;;;;;;9.68;5.50;;;1.20;99.90;;;;;;2157180;66;20289;-67
2022/03/09 07:27:35;;;;;;;6.85;5.05;;;1.20;99.90;;;;;;2138269;66;20186;-68
2022/03/09 07:30:23;;;;;;;10.45;5.45;;;1.30;99.90;;;;;;2138005;66;20619;-69
2022/03/09 07:33:04;;;;;;;11.05;6.00;;;1.30;99.90;;;;;;2138778;66;20216;-69
2022/03/09 07:35:47;;;;;;;8.00;5.88;;;1.40;99.90;;;;;;2143617;66;20270;-68
2022/03/09 07:38:28;;;;;;;9.20;5.88;;;1.50;99.90;;;;;;2125605;67;20275;-68
2022/03/09 07:41:10;;;;;;;11.65;5.95;;;1.60;99.90;;;;;;2125749;67;20363;-67
2022/03/09 07:43:51;;;;;;;8.45;5.38;;;1.70;99.90;;;;;;2139834;66;20427;-68
2022/03/09 07:46:34;;;;;;;11.85;5.13;;;1.80;99.90;;;;;;2145994;66;20296;-67
2022/03/09 07:49:20;;;;;;;8.80;5.50;;;1.90;99.90;;;;;;2132014;67;20371;-69
2022/03/09 07:52:09;;;;;;;9.35;5.25;;;2.10;99.90;;;;;;2125792;67;20172;-67
2022/03/09 07:54:56;;;;;;;7.93;6.05;;;2.20;99.90;;;;;;2111067;67;20185;-67
2022/03/09 07:57:42;;;;;;;9.73;5.70;;;2.30;99.90;;;;;;2124693;67;20191;-68
2022/03/09 08:00:27;;;;;;;8.98;5.70;;;2.30;99.90;;;;;;2131846;67;20197;-68
2022/03/09 08:03:08;;;;;;;12.52;5.72;;;2.50;99.90;;;;;;2138390;66;20399;-68
2022/03/09 08:05:52;;;;;;;9.38;5.65;;;2.50;99.90;;;;;;2120645;67;20311;-67
2022/03/09 08:08:37;;;;;;;7.60;4.82;;;2.70;99.70;;;;;;2114655;67;20181;-67
2022/03/09 08:11:23;;;;;;;10.07;6.43;;;2.70;99.10;;;;;;2120589;67;20183;-68
2022/03/09 08:14:10;;;;;;;12.00;6.10;;;2.80;98.50;;;;;;2107414;67;20773;-68
2022/03/09 08:16:56;;;;;;;10.82;5.97;;;2.90;98.10;;;;;;2116362;67;20322;-68
2022/03/09 08:19:40;;;;;;;7.95;6.10;;;3.00;97.40;;;;;;2126435;67;20832;-67
2022/03/09 08:22:22;;;;;;;10.40;5.53;;;3.10;96.80;;;;;;2118072;67;20330;-68
2022/03/09 08:25:06;;;;;;;7.53;5.32;;;3.20;95.90;;;;;;2123383;67;20411;-66
2022/03/09 08:27:51;;;;;;;10.20;6.35;;;3.20;95.30;;;;;;2124390;67;20350;-67
2022/03/09 08:30:35;;;;;;;12.55;5.38;;;3.30;94.70;;;;;;2124069;67;20280;-68
2022/03/09 08:33:17;;;;;;;8.82;5.82;;;3.40;94.30;;;;;;2109651;67;20346;-66
2022/03/09 08:35:59;;;;;;;9.20;5.72;;;3.50;93.50;;;;;;2096012;68;20365;-67
2022/03/09 08:38:41;;;;;;;8.80;5.57;;;3.60;92.80;;;;;;2083236;68;20184;-68
2022/03/09 08:41:25;;;;;;;10.73;6.00;;;3.70;92.10;;;;;;2075719;69;20723;-67
2022/03/09 08:44:07;;;;;;;6.90;5.05;;;3.80;91.30;;;;;;2081578;68;20371;-67
2022/03/09 08:46:49;;;;;;;10.70;5.57;;;3.90;90.70;;;;;;2076122;68;20326;-68
2022/03/09 08:49:33;;;;;;;8.88;5.28;;;4.10;89.30;;;;;;2084392;68;20173;-68
2022/03/09 08:52:16;;;;;;;9.73;5.20;;;4.10;89.00;;;;;;2079274;68;20896;-68
2022/03/09 08:54:58;;;;;;;12.18;5.45;;;3.80;87.20;;;;;;2091053;68;20329;-68
2022/03/09 08:57:40;;;;;;;10.35;5.55;;;4.30;86.40;;;;;;2096313;68;20275;-68
2022/03/09 09:00:24;;;;;;;8.18;5.25;;;4.40;85.70;;;;;;2103329;67;20707;-68
2022/03/09 09:03:06;;;;;;;8.63;5.15;;;4.60;83.90;;;;;;2106798;67;20680;-67
2022/03/09 09:05:48;;;;;;;9.73;5.72;;;4.70;82.70;;;;;;2114232;67;20173;-68
2022/03/09 09:08:30;;;;;;;7.38;5.07;;;4.80;81.90;;;;;;2121869;67;20380;-67
2022/03/09 09:11:12;;;;;;;8.45;5.72;;;4.90;80.50;;;;;;2120941;67;20361;-68
2022/03/09 09:13:54;;;;;;;8.93;5.45;;;5.60;79.80;;;;;;2125553;67;20235;-68
2022/03/09 09:16:36;;;;;;;12.63;5.60;;;5.10;78.40;;;;;;2121890;67;20198;-68
2022/03/09 09:19:19;;;;;;;9.25;5.32;;;5.20;78.40;;;;;;2112659;67;20225;-68
2022/03/09 09:22:03;;;;;;;7.85;5.50;;;5.30;77.70;;;;;;2113299;67;20672;-69
2022/03/09 09:24:45;;;;;;;7.45;5.28;;;5.50;76.40;;;;;;2112201;67;20405;-68
2022/03/09 09:27:27;;;;;;;9.18;6.15;;;5.60;75.50;;;;;;2116160;67;20886;-68
2022/03/09 09:30:11;;;;;;;6.50;5.05;;;5.60;73.70;;;;;;2134194;67;20376;-67
2022/03/09 09:32:52;;;;;;;8.02;4.93;;;5.80;72.30;;;;;;2133142;67;20167;-68
2022/03/09 09:36:13;;;;;;;11.02;5.60;;;5.90;71.50;;;;;;2125046;67;20299;-70
2022/03/09 09:38:55;;;;;;;8.82;5.47;;;5.90;68.70;;;;;;2111283;67;20734;-68
2022/03/09 09:41:37;;;;;;;9.25;5.45;;;6.10;68.80;;;;;;2100671;68;20181;-68
2022/03/09 09:44:20;;;;;;;10.40;5.60;;;6.20;68.50;;;;;;2093236;68;20469;-68
2022/03/09 09:47:05;;;;;;;10.45;5.25;;;6.30;68.20;;;;;;2091732;68;20177;-68
2022/03/09 09:49:48;;;;;;;7.22;5.57;;;6.30;67.50;;;;;;2079654;68;20216;-68
2022/03/09 09:52:35;;;;;;;10.48;6.13;;;6.10;67.20;;;;;;2110467;67;20759;-68
2022/03/09 09:55:36;;;;;;;8.85;5.85;;;6.50;67.10;;;;;;2101858;67;20754;-68
2022/03/09 09:58:21;;;;;;;8.82;5.57;;;6.50;66.20;;;;;;2089662;68;20365;-67
2022/03/09 10:01:02;;;;;;;9.15;6.50;;;6.60;66.00;;;;;;2097015;68;20348;-68
2022/03/09 10:03:43;;;;;;;7.88;5.53;;;6.70;65.70;;;;;;2097068;68;20427;-67
2022/03/09 10:06:25;;;;;;;13.68;6.22;;;6.70;65.60;;;;;;2107126;67;20207;-68
2022/03/09 10:09:09;;;;;;;11.15;5.90;;;6.80;65.20;;;;;;2111895;67;20382;-67
2022/03/09 10:11:54;;;;;;;9.82;5.40;;;6.90;65.10;;;;;;2116482;67;20312;-67
2022/03/09 10:14:50;;;;;;;7.38;5.22;;;7.00;64.40;;;;;;2117880;67;20317;-70
2022/03/09 10:17:32;;;;;;;;;;;7.00;64.40;;;;;;2124742;67;20266;-69
2022/03/09 10:20:18;;;;;;;8.98;5.80;;;7.10;64.80;;;;;;2125177;67;20159;-68
2022/03/09 10:23:02;;;;;;;10.20;5.72;;;7.20;64.20;;;;;;2129032;67;20176;-68
2022/03/09 10:26:01;;;;;;;10.48;5.97;;;7.50;64.10;;;;;;2107103;67;20259;-67
2022/03/09 10:29:02;;;;;;;8.50;5.20;;;7.40;63.30;;;;;;2107123;67;20336;-68
2022/03/09 10:31:51;;;;;;;7.07;5.85;;;7.50;63.70;;;;;;2117604;67;20204;-69
2022/03/09 10:34:48;;;;;;;9.00;6.07;;;7.60;63.80;;;;;;2122140;67;20224;-68
2022/03/09 10:37:41;;;;;;;7.85;5.22;;;7.70;62.40;;;;;;2128854;67;20211;-68
2022/03/09 10:40:24;;;;;;;7.43;5.75;;;7.90;61.60;;;;;;2128093;67;21026;-68
2022/03/09 10:43:18;;;;;;;10.00;6.00;;;8.10;61.70;;;;;;2143721;66;20178;-68
2022/03/09 10:46:09;;;;;;;7.72;5.68;;;8.30;61.20;;;;;;2157015;66;20198;-68
2022/03/09 10:48:53;;;;;;;10.05;6.13;;;8.60;61.10;;;;;;2150894;66;20739;-67
2022/03/09 10:51:42;;;;;;;10.23;6.00;;;9.00;60.80;;;;;;2151638;66;20241;-68
2022/03/09 10:54:35;;;;;;;7.28;5.88;;;9.40;60.50;;;;;;2150755;66;20218;-67
2022/03/09 10:57:33;;;;;;;7.97;5.88;;;9.70;60.10;;;;;;2148100;66;20849;-68
2022/03/09 11:00:04;;;;;;;7.95;5.57;;;10.10;59.10;;;;;;2151266;66;20230;-68
2022/03/09 11:02:53;;;;;;;6.65;5.53;;;10.50;58.80;;;;;;2154977;66;20236;-69
2022/03/09 11:05:25;;;;;;;;;;;11.30;56.20;;;;;;2158884;66;20172;-68
2022/03/09 11:08:04;;;;;;;8.95;6.20;;;11.20;54.20;;;;;;2160273;66;20107;-68
2022/03/09 11:10:45;;;;;;;8.63;6.30;;;11.50;56.10;;;;;;2160649;66;20239;-68
2022/03/09 11:13:22;;;;;;;10.07;6.85;;;12.00;54.10;;;;;;2170487;65;20261;-68
2022/03/09 11:16:04;;;;;;;10.00;5.75;;;12.40;54.10;;;;;;2199141;65;20180;-68
2022/03/09 11:18:40;;;;;;;8.48;6.70;;;13.10;53.90;;;;;;2206423;65;20202;-67
2022/03/09 11:21:10;;;;;;;12.45;6.43;;;13.40;52.70;;;;;;2229623;64;20216;-68
2022/03/09 11:24:00;;;;;;;8.55;7.07;;;13.80;52.00;;;;;;2205176;65;20702;-69
2022/03/09 11:26:54;;;;;;;8.20;6.53;;;14.30;52.20;;;;;;2206080;64;20710;-68
2022/03/09 11:29:54;;;;;;;9.65;6.85;;;14.80;51.20;;;;;;2201110;65;20206;-67
2022/03/09 11:32:35;;;;;;;8.23;6.30;;;15.30;50.50;;;;;;2204881;64;20184;-69
2022/03/09 11:35:40;;;;;;;8.98;7.40;;;15.70;49.10;;;;;;2206788;64;20324;-69
2022/03/09 11:38:33;;;;;;;11.23;7.07;;;16.30;47.60;;;;;;2197625;65;20591;-69
2022/03/09 11:41:16;;;;;;;7.97;6.80;;;16.70;47.00;;;;;;2197028;65;20307;-68
2022/03/09 11:43:53;;;;;;;8.55;6.80;;;17.10;45.10;;;;;;1969703;64;16032652;-67
2022/03/09 11:47:06;;;;;;;7.82;6.55;;;17.30;44.60;;;;;;2206082;64;20264;-67
2022/03/09 11:49:42;;;;;;;9.20;6.80;;;17.80;44.00;;;;;;2204467;64;20586;-68
2022/03/09 11:52:25;;;;;;;8.80;7.38;;;18.10;43.60;;;;;;2194957;65;20319;-66
2022/03/09 11:55:18;;;;;;;8.95;6.78;;;18.50;42.00;;;;;;2188716;65;20217;-69
2022/03/09 11:58:14;;;;;;;9.65;7.10;;;18.90;41.40;;;;;;2184648;65;20348;-69
2022/03/09 12:01:03;;;;;;;7.18;6.35;;;19.30;40.00;;;;;;2182657;65;20304;-68
2022/03/09 12:03:47;;;;;;;7.63;6.82;;;19.50;39.70;;;;;;2178710;65;20207;-69
2022/03/09 12:06:42;;;;;;;7.88;6.43;;;19.80;38.90;;;;;;2176509;65;20171;-68
2022/03/09 12:09:57;;;;;;;7.00;6.30;;;20.30;38.80;;;;;;2174337;65;20183;-68
2022/03/09 12:13:13;;;;;;;8.55;7.68;;;20.50;37.90;;;;;;2165345;66;20331;-69
2022/03/09 12:16:02;;;;;;;9.25;7.45;;;20.90;37.30;;;;;;2158579;66;20264;-69
2022/03/09 12:18:44;;;;;;;7.25;6.55;;;21.10;36.50;;;;;;2151734;66;20891;-68
2022/03/09 12:21:26;;;;;;;8.13;6.50;;;21.40;36.30;;;;;;2158648;66;20200;-69
2022/03/09 12:24:22;;;;;;;8.55;6.80;;;21.80;35.80;;;;;;2144638;66;20301;-68
2022/03/09 12:27:22;;;;;;;7.40;6.43;;;22.20;35.60;;;;;;2136953;66;20328;-67
2022/03/09 12:30:24;;;;;;;8.35;7.53;;;22.60;35.00;;;;;;2124272;67;20734;-69
2022/03/09 12:33:06;;;;;;;7.57;6.80;;;22.90;34.00;;;;;;2124937;67;20256;-70
2022/03/09 12:35:49;;;;;;;8.35;6.72;;;23.30;34.10;;;;;;2106667;67;20262;-70
2022/03/09 12:38:42;;;;;;;8.73;7.50;;;23.70;32.90;;;;;;2117605;67;20354;-68
2022/03/09 12:41:39;;;;;;;7.93;6.53;;;24.00;32.70;;;;;;2103320;67;20646;-68
2022/03/09 12:44:22;;;;;;;8.47;6.93;;;24.40;32.80;;;;;;2104349;67;20223;-68
2022/03/09 12:47:06;;;;;;;8.00;7.18;;;24.60;31.40;;;;;;2112179;67;20763;-69
2022/03/09 12:49:49;;;;;;;8.43;7.00;;;24.70;31.20;;;;;;2132095;66;20456;-69
2022/03/09 12:52:41;;;;;;;8.63;7.60;;;25.00;30.60;;;;;;2119752;67;20913;-68
2022/03/09 12:55:25;;;;;;;7.07;6.38;;;25.20;30.50;;;;;;2094355;68;20364;-69
2022/03/09 12:58:08;;;;;;;11.25;7.63;;;25.50;30.10;;;;;;2100668;67;20293;-69
2022/03/09 13:01:05;;;;;;;9.35;7.30;;;25.80;30.00;;;;;;2111966;67;21349;-70
2022/03/09 13:03:48;;;;;;;8.07;6.67;;;26.30;30.40;;;;;;2122440;67;20192;-70
2022/03/09 13:06:42;;;;;;;7.53;6.82;;;26.60;30.10;;;;;;2130454;67;20338;-70
2022/03/09 13:09:27;;;;;;;8.38;6.97;;;26.70;29.70;;;;;;2144007;66;20442;-68
2022/03/09 13:12:12;;;;;;;7.05;6.35;;;26.90;29.30;;;;;;2145469;66;20330;-67
2022/03/09 13:14:57;;;;;;;7.13;6.30;;;27.30;29.00;;;;;;2138396;66;20331;-69
2022/03/09 13:17:48;;;;;;;8.75;7.90;;;27.60;28.90;;;;;;2138271;66;20300;-70
2022/03/09 13:20:33;;;;;;;7.45;6.75;;;28.10;29.00;;;;;;2148889;66;20393;-68
2022/03/09 13:23:33;;;;;;;7.65;6.95;;;28.40;28.70;;;;;;2143754;66;20619;-69
2022/03/09 13:26:24;;;;;;;7.70;6.47;;;28.50;28.40;;;;;;2146079;66;20178;-69
2022/03/09 13:29:19;;;;;;;8.90;6.75;;;28.60;28.60;;;;;;2148675;66;20201;-69
2022/03/09 13:32:05;;;;;;;8.13;7.20;;;28.80;28.60;;;;;;2133174;66;20203;-68
2022/03/09 13:34:48;;;;;;;7.75;6.85;;;29.00;27.90;;;;;;2145426;66;20723;-70
2022/03/09 13:37:41;;;;;;;7.93;6.95;;;29.20;27.80;;;;;;2132522;66;20235;-69
2022/03/09 13:40:27;;;;;;;8.82;6.30;;;29.10;27.80;;;;;;2130603;67;20183;-71
2022/03/09 13:43:11;;;;;;;8.10;7.15;;;29.20;27.40;;;;;;2133785;66;20206;-70
2022/03/09 13:45:53;;;;;;;7.28;6.55;;;29.30;27.30;;;;;;2137592;66;20371;-69
2022/03/09 13:48:36;;;;;;;7.88;6.45;;;29.50;26.80;;;;;;2128207;67;20271;-69
2022/03/09 13:51:18;;;;;;;12.75;7.35;;;29.60;26.70;;;;;;2133617;66;20673;-69
2022/03/09 13:54:06;;;;;;;7.72;6.75;;;29.60;26.70;;;;;;2137305;66;20200;-70
2022/03/09 13:57:00;;;;;;;6.97;6.28;;;29.60;26.90;;;;;;2136754;67;20645;-69
2022/03/09 13:59:46;;;;;;;7.90;7.07;;;29.60;26.80;;;;;;2132278;67;20753;-69
2022/03/09 14:02:28;;;;;;;8.20;6.30;;;29.70;26.40;;;;;;2131496;67;20364;-70
2022/03/09 14:05:10;;;;;;;8.32;7.00;;;29.80;26.30;;;;;;2130325;67;20195;-68
2022/03/09 14:07:52;;;;;;;7.25;6.63;;;30.00;25.90;;;;;;2114246;67;20366;-70
2022/03/09 14:10:36;;;;;;;7.78;7.05;;;29.20;24.70;;;;;;2123178;67;20188;-69
2022/03/09 14:13:19;;;;;;;8.00;7.30;;;28.50;25.00;;;;;;2124633;67;20244;-70
2022/03/09 14:16:01;;;;;;;7.55;6.78;;;28.20;25.20;;;;;;2119073;67;20195;-70
2022/03/09 14:18:44;;;;;;;11.60;8.98;;;28.30;25.50;;;;;;2126504;67;20246;-69
2022/03/09 14:21:30;;;;;;;8.25;7.38;;;28.60;25.50;;;;;;2116256;67;20722;-70
2022/03/09 14:24:14;;;;;;;8.18;7.47;;;28.80;25.60;;;;;;2118447;67;20329;-69
2022/03/09 14:27:04;;;;;;;8.63;6.88;;;29.00;25.30;;;;;;2118318;67;20173;-69
2022/03/09 14:29:51;;;;;;;7.35;6.50;;;29.10;25.30;;;;;;2117492;67;20253;-69